Latest Weather Observations for Inner Beacon

IDQ60801

Issued at 10:32 pm EST Wednesday 4 March 2015 (issued every 30 minutes, with the page automatically refreshed every 10 minutes)

About weather observations | Map of weather stations | Latest weather observations for QLD | Other Formats
Station Details ID: 040926 Name: INNER RECIPROCAL MARKER Lat: -27.26 Lon: 153.24 Height: 20.0 m
Data from the previous 72 hours. | See also: Recent months for locations in Queensland
Date/Time
EST
Temp
°C
App
Temp
°C
Dew
Point
Rel
Hum
%
Delta-T
°C
Wind Press
QNH
hPa
Press
MSL
hPa
Rain
since 9 am
mm
Dir
 
Spd
km/h
Gust
km/h
Spd
kts
Gust
kts
04/10:30pm - - - - - N 19 24 10 13 - - -
04/10:00pm - - - - - N 22 26 12 14 - - -
04/09:30pm - - - - - N 20 24 11 13 - - -
04/09:00pm - - - - - N 20 24 11 13 - - -
04/08:30pm - - - - - N 20 24 11 13 - - -
04/08:00pm - - - - - N 22 24 12 13 - - -
04/07:30pm - - - - - N 22 26 12 14 - - -
04/07:00pm - - - - - N 20 24 11 13 - - -
04/06:30pm - - - - - NNE 17 20 9 11 - - -
04/06:00pm - - - - - NE 15 19 8 10 - - -
04/05:30pm - - - - - NE 13 17 7 9 - - -
04/05:00pm - - - - - NNE 13 19 7 10 - - -
04/04:30pm - - - - - NE 13 15 7 8 - - -
04/04:00pm - - - - - NE 11 13 6 7 - - -
04/03:30pm - - - - - E 11 15 6 8 - - -
04/03:00pm - - - - - ENE 11 13 6 7 - - -
04/02:30pm - - - - - ENE 9 11 5 6 - - -
04/02:00pm - - - - - NE 9 13 5 7 - - -
04/01:30pm - - - - - NE 7 9 4 5 - - -
04/01:00pm - - - - - NNE 4 6 2 3 - - -
04/12:30pm - - - - - W 2 4 1 2 - - -
04/12:00pm - - - - - CALM 0 2 0 1 - - -
04/11:30am - - - - - WSW 2 4 1 2 - - -
04/11:00am - - - - - S 2 4 1 2 - - -
04/10:30am - - - - - SSE 4 6 2 3 - - -
04/10:00am - - - - - SSE 6 7 3 4 - - -
04/09:30am - - - - - SSE 7 11 4 6 - - -
04/09:00am - - - - - S 11 13 6 7 - - -
04/08:30am - - - - - S 13 17 7 9 - - -
04/08:00am - - - - - SSW 13 17 7 9 - - -
04/07:30am - - - - - SSW 9 13 5 7 - - -
04/07:00am - - - - - SSE 6 9 3 5 - - -
04/06:30am - - - - - ESE 6 9 3 5 - - -
04/06:00am - - - - - SE 7 9 4 5 - - -
04/05:30am - - - - - SE 7 9 4 5 - - -
04/05:00am - - - - - ESE 7 9 4 5 - - -
04/04:30am - - - - - E 7 11 4 6 - - -
04/04:00am - - - - - ESE 7 9 4 5 - - -
04/03:30am - - - - - ESE 7 13 4 7 - - -
04/03:00am - - - - - SE 9 11 5 6 - - -
04/02:30am - - - - - SE 7 9 4 5 - - -
04/02:00am - - - - - SE 7 11 4 6 - - -
04/01:30am - - - - - SSE 11 15 6 8 - - -
04/01:00am - - - - - SE 11 15 6 8 - - -
04/12:30am - - - - - SE 15 17 8 9 - - -
04/12:00am - - - - - SE 15 19 8 10 - - -
 
Date/Time
EST
Temp
°C
App
Temp
°C
Dew
Point
Rel
Hum
%
Delta-T
°C
Wind Press
QNH
hPa
Press
MSL
hPa
Rain
since 9 am
mm
Dir
 
Spd
km/h
Gust
km/h
Spd
kts
Gust
kts
03/11:30pm - - - - - SE 15 19 8 10 - - -
03/11:00pm - - - - - SE 15 20 8 11 - - -
03/10:30pm - - - - - ESE 13 17 7 9 - - -
03/10:00pm - - - - - ESE 17 22 9 12 - - -
03/09:30pm - - - - - E 15 19 8 10 - - -
03/09:00pm - - - - - ESE 15 20 8 11 - - -
03/08:30pm - - - - - ESE 15 20 8 11 - - -
03/08:00pm - - - - - E 15 17 8 9 - - -
03/07:30pm - - - - - ESE 17 20 9 11 - - -
03/07:00pm - - - - - ESE 17 22 9 12 - - -
03/06:30pm - - - - - E 20 24 11 13 - - -
03/06:00pm - - - - - E 19 24 10 13 - - -
03/05:30pm - - - - - E 20 24 11 13 - - -
03/05:00pm - - - - - E 20 24 11 13 - - -
03/04:30pm - - - - - E 22 28 12 15 - - -
03/04:00pm - - - - - E 20 28 11 15 - - -
03/03:30pm - - - - - E 20 28 11 15 - - -
03/03:00pm - - - - - E 19 24 10 13 - - -
03/02:30pm - - - - - E 17 22 9 12 - - -
03/02:00pm - - - - - ESE 17 19 9 10 - - -
03/01:30pm - - - - - ESE 17 20 9 11 - - -
03/01:00pm - - - - - ESE 17 20 9 11 - - -
03/12:30pm - - - - - ESE 15 19 8 10 - - -
03/12:00pm - - - - - SE 15 19 8 10 - - -
03/11:30am - - - - - SE 19 22 10 12 - - -
03/11:00am - - - - - SSE 19 22 10 12 - - -
03/10:30am - - - - - SE 19 22 10 12 - - -
03/10:00am - - - - - SSE 19 22 10 12 - - -
03/09:30am - - - - - S 20 24 11 13 - - -
03/09:00am - - - - - S 19 22 10 12 - - -
03/08:30am - - - - - S 17 20 9 11 - - -
03/08:00am - - - - - SSW 22 26 12 14 - - -
03/07:30am - - - - - SSW 20 24 11 13 - - -
03/07:00am - - - - - S 20 22 11 12 - - -
03/06:30am - - - - - S 19 22 10 12 - - -
03/06:00am - - - - - SSW 20 26 11 14 - - -
03/05:30am - - - - - SSW 20 22 11 12 - - -
03/05:00am - - - - - S 22 26 12 14 - - -
03/04:30am - - - - - S 20 22 11 12 - - -
03/04:00am - - - - - S 19 22 10 12 - - -
03/03:30am - - - - - S 20 24 11 13 - - -
03/03:00am - - - - - S 22 28 12 15 - - -
03/02:30am - - - - - S 22 28 12 15 - - -
03/02:00am - - - - - S 24 28 13 15 - - -
03/01:30am - - - - - S 26 30 14 16 - - -
03/01:00am - - - - - S 26 30 14 16 - - -
03/12:30am - - - - - S 26 30 14 16 - - -
03/12:00am - - - - - S 24 30 13 16 - - -
 
Date/Time
EST
Temp
°C
App
Temp
°C
Dew
Point
Rel
Hum
%
Delta-T
°C
Wind Press
QNH
hPa
Press
MSL
hPa
Rain
since 9 am
mm
Dir
 
Spd
km/h
Gust
km/h
Spd
kts
Gust
kts
02/11:30pm - - - - - SSE 28 33 15 18 - - -
02/11:00pm - - - - - S 32 39 17 21 - - -
02/10:30pm - - - - - SSE 30 35 16 19 - - -
02/10:00pm - - - - - SSE 35 43 19 23 - - -
02/09:30pm - - - - - SSE 32 37 17 20 - - -
02/09:00pm - - - - - SSE 32 39 17 21 - - -
02/08:30pm - - - - - S 32 44 17 24 - - -
02/08:24pm - - - - - SSE 37 52 20 28 - - -
02/08:00pm - - - - - SE 37 43 20 23 - - -
02/07:30pm - - - - - SE 33 43 18 23 - - -
02/07:00pm - - - - - SE 39 44 21 24 - - -
02/06:30pm - - - - - SE 39 46 21 25 - - -
02/06:03pm - - - - - ESE 28 46 15 25 - - -
02/06:00pm - - - - - SE 33 50 18 27 - - -
02/05:30pm - - - - - ESE 39 46 21 25 - - -
02/05:00pm - - - - - SE 44 52 24 28 - - -
02/04:30pm - - - - - SE 44 52 24 28 - - -
02/04:00pm - - - - - SE 39 44 21 24 - - -
02/03:30pm - - - - - SE 41 48 22 26 - - -
02/03:00pm - - - - - SE 43 50 23 27 - - -
02/02:30pm - - - - - SE 39 48 21 26 - - -
02/02:00pm - - - - - SE 41 46 22 25 - - -
02/01:30pm - - - - - SE 37 44 20 24 - - -
02/01:00pm - - - - - SSE 37 43 20 23 - - -
02/12:30pm - - - - - SSE 39 44 21 24 - - -
02/12:00pm - - - - - SSE 43 48 23 26 - - -
02/11:30am - - - - - SSE 37 43 20 23 - - -
02/11:00am - - - - - SSE 37 43 20 23 - - -
02/10:30am - - - - - SSE 35 39 19 21 - - -
02/10:00am - - - - - SSE 28 35 15 19 - - -
02/09:30am - - - - - SSE 20 24 11 13 - - -
02/09:00am - - - - - S 17 22 9 12 - - -
02/08:30am - - - - - S 15 17 8 9 - - -
02/08:00am - - - - - SSW 13 15 7 8 - - -
02/07:30am - - - - - S 17 20 9 11 - - -
02/07:00am - - - - - S 17 19 9 10 - - -
02/06:30am - - - - - S 19 24 10 13 - - -
02/06:00am - - - - - S 19 24 10 13 - - -
02/05:30am - - - - - SSW 15 17 8 9 - - -
02/05:00am - - - - - SW 7 9 4 5 - - -
02/04:30am - - - - - WSW 6 7 3 4 - - -
02/04:00am - - - - - NW 6 7 3 4 - - -
02/03:30am - - - - - N 6 7 3 4 - - -
02/03:00am - - - - - N 7 9 4 5 - - -
02/02:30am - - - - - N 7 9 4 5 - - -
02/02:00am - - - - - N 7 9 4 5 - - -
02/01:30am - - - - - N 7 11 4 6 - - -
02/01:00am - - - - - NE 7 9 4 5 - - -
02/12:30am - - - - - ENE 9 11 5 6 - - -
02/12:00am - - - - - NE 9 11 5 6 - - -
 
Date/Time
EST
Temp
°C
App
Temp
°C
Dew
Point
Rel
Hum
%
Delta-T
°C
Wind Press
QNH
hPa
Press
MSL
hPa
Rain
since 9 am
mm
Dir
 
Spd
km/h
Gust
km/h
Spd
kts
Gust
kts
01/11:30pm - - - - - N 11 13 6 7 - - -
01/11:00pm - - - - - N 15 19 8 10 - - -

Other Formats:

Comma delimited format used in spreadsheet applications
http://www.bom.gov.au/fwo/IDQ60801/IDQ60801.94590.axf

JavaScript Object Notation format (JSON) in row-major order
http://www.bom.gov.au/fwo/IDQ60801/IDQ60801.94590.json